createdAt,value
2019-05-07T00:18:38.383Z,100800.28
2019-05-07T00:21:25.319Z,100802.43
2019-05-07T00:24:13.545Z,100806.73
2019-05-07T00:27:14.818Z,100796.47
2019-05-07T00:30:02.866Z,100798.20
2019-05-07T00:36:02.650Z,100805.39
2019-05-07T00:38:51.962Z,100800.61
2019-05-07T00:48:12.513Z,100799.88
2019-05-07T00:54:18.487Z,100802.96
2019-05-07T01:00:13.097Z,100804.75
2019-05-07T01:12:18.608Z,100803.54
2019-05-07T01:27:37.095Z,100798.47
2019-05-07T01:30:23.963Z,100797.27
2019-05-07T01:33:13.587Z,100797.66
2019-05-07T01:42:18.040Z,100793.56
2019-05-07T01:45:05.725Z,100800.22
2019-05-07T01:50:58.593Z,100802.55
2019-05-07T01:53:59.483Z,100800.84
2019-05-07T02:06:25.776Z,100802.17
2019-05-07T02:37:37.624Z,100803.22
2019-05-07T02:40:18.261Z,100802.08
2019-05-07T03:21:12.697Z,100790.66
2019-05-07T03:24:08.411Z,100803.80
2019-05-07T03:26:58.088Z,100804.79
2019-05-07T03:55:14.460Z,100805.88
2019-05-07T03:58:03.190Z,100813.41
2019-05-07T04:00:48.721Z,100811.89
2019-05-07T04:06:43.412Z,100814.84
2019-05-07T04:09:28.833Z,100820.64
2019-05-07T04:12:16.379Z,100822.63
2019-05-07T04:27:34.765Z,100827.99
2019-05-07T04:30:23.515Z,100832.80
2019-05-07T04:33:13.057Z,100832.34
2019-05-07T04:36:04.881Z,100832.88
2019-05-07T04:54:25.355Z,100849.64
2019-05-07T04:57:27.313Z,100854.72
2019-05-07T05:00:28.478Z,100858.73
2019-05-07T05:03:15.559Z,100859.33
2019-05-07T05:15:35.564Z,100873.13
2019-05-07T05:18:22.502Z,100875.80
2019-05-07T05:24:33.142Z,100885.73
2019-05-07T05:27:30.106Z,100889.78
2019-05-07T05:30:21.990Z,100885.10
2019-05-07T05:33:08.020Z,100890.03
2019-05-07T05:35:55.389Z,100898.88
2019-05-07T06:20:13.863Z,100918.64
2019-05-07T06:26:16.316Z,100922.79
2019-05-07T06:29:03.393Z,100926.79
2019-05-07T06:31:52.829Z,100926.39
2019-05-07T06:50:22.565Z,100939.09
2019-05-07T06:53:11.499Z,100945.82
2019-05-07T06:55:56.483Z,100949.25
2019-05-07T06:58:46.613Z,100940.91
2019-05-07T07:08:09.946Z,100941.98
2019-05-07T07:11:15.595Z,100941.13
2019-05-07T07:14:02.704Z,100940.75
2019-05-07T07:16:52.659Z,100935.39
2019-05-07T07:26:03.491Z,100926.17
2019-05-07T07:28:52.500Z,100929.30
2019-05-07T07:31:38.494Z,100922.02
2019-05-07T07:34:25.657Z,100919.91
2019-05-07T07:37:25.044Z,100921.22
2019-05-07T07:40:12.934Z,100918.91
2019-05-07T07:42:59.313Z,100922.39
2019-05-07T07:46:02.192Z,100926.93
2019-05-07T07:51:54.962Z,100922.27
2019-05-07T07:54:42.981Z,100918.30
2019-05-07T08:00:52.258Z,100920.97
2019-05-07T08:03:37.640Z,100922.31
2019-05-07T08:06:24.432Z,100922.44
2019-05-07T08:09:12.994Z,100916.67
2019-05-07T08:11:58.678Z,100915.55
2019-05-07T08:14:45.630Z,100913.84
2019-05-07T08:17:35.487Z,100914.72
2019-05-07T08:20:22.975Z,100910.27
2019-05-07T08:23:12.058Z,100908.63
2019-05-07T08:25:56.890Z,100914.22
2019-05-07T08:28:44.262Z,100909.60
2019-05-07T08:31:42.470Z,100907.27
2019-05-07T08:34:37.085Z,100909.92
2019-05-07T08:37:24.540Z,100907.77
2019-05-07T08:40:12.715Z,100904.03
2019-05-07T08:42:59.123Z,100906.55
2019-05-07T08:45:49.138Z,100904.52
2019-05-07T08:48:36.425Z,100903.91
2019-05-07T08:51:23.147Z,100903.66
2019-05-07T08:54:17.038Z,100904.78
2019-05-07T08:57:04.050Z,100907.47
2019-05-07T09:00:00.319Z,100900.34
2019-05-07T09:02:52.824Z,100897.51
2019-05-07T09:05:42.580Z,100900.42
2019-05-07T09:08:28.026Z,100901.17
2019-05-07T09:11:29.347Z,100897.57
2019-05-07T09:14:16.329Z,100897.42
2019-05-07T09:17:03.436Z,100896.69
2019-05-07T09:19:54.057Z,100890.72
2019-05-07T09:22:51.872Z,100883.08
2019-05-07T09:25:38.454Z,100882.28
2019-05-07T09:28:25.794Z,100883.81
2019-05-07T09:31:13.220Z,100887.27
2019-05-07T09:34:07.522Z,100880.80
2019-05-07T09:36:54.192Z,100882.75
2019-05-07T09:39:42.750Z,100875.41
2019-05-07T09:42:28.596Z,100884.54
2019-05-07T09:45:15.737Z,100883.46
2019-05-07T09:48:03.055Z,100879.98
2019-05-07T09:50:49.891Z,100879.81
2019-05-07T09:53:36.961Z,100876.27
2019-05-07T09:56:23.614Z,100875.30
2019-05-07T09:59:12.526Z,100877.07
2019-05-07T10:01:57.335Z,100876.53
2019-05-07T10:04:44.482Z,100862.77
2019-05-07T10:07:32.487Z,100866.54
2019-05-07T10:10:18.632Z,100868.81
2019-05-07T10:13:08.204Z,100863.91
2019-05-07T10:15:55.293Z,100866.92
2019-05-07T10:18:43.318Z,100857.11
2019-05-07T10:21:30.544Z,100851.76
2019-05-07T10:24:17.566Z,100855.28
2019-05-07T10:27:04.624Z,100845.22
2019-05-07T10:29:53.026Z,100843.37
2019-05-07T10:32:38.754Z,100844.30
2019-05-07T10:38:32.246Z,100850.66
2019-05-07T10:41:19.323Z,100841.35
2019-05-07T10:44:06.578Z,100832.17
2019-05-07T10:47:12.154Z,100833.19
2019-05-07T10:50:17.342Z,100834.97
2019-05-07T10:53:04.561Z,100828.98
2019-05-07T11:02:04.022Z,100830.03
2019-05-07T11:04:53.151Z,100821.30
2019-05-07T11:07:37.936Z,100820.73
2019-05-07T11:10:24.979Z,100817.06
2019-05-07T11:13:12.872Z,100805.92
2019-05-07T11:15:58.964Z,100815.84
2019-05-07T11:18:46.044Z,100815.44
2019-05-07T11:21:33.646Z,100806.83
2019-05-07T11:24:19.795Z,100806.52
2019-05-07T11:33:18.983Z,100799.02
2019-05-07T11:36:06.810Z,100796.14
2019-05-07T11:39:08.197Z,100790.84
2019-05-07T11:48:07.378Z,100794.25
2019-05-07T11:51:01.380Z,100786.13
2019-05-07T11:54:01.955Z,100787.02
2019-05-07T11:56:46.456Z,100780.78
2019-05-07T11:59:33.669Z,100783.63
2019-05-07T12:02:27.456Z,100778.43
2019-05-07T12:05:14.110Z,100774.12
2019-05-07T12:08:02.328Z,100778.48
2019-05-07T12:10:48.256Z,100770.35
2019-05-07T12:13:35.577Z,100772.09
2019-05-07T12:16:22.652Z,100768.44
2019-05-07T12:19:23.764Z,100770.30
2019-05-07T12:22:12.121Z,100763.61
2019-05-07T12:24:57.761Z,100760.22
2019-05-07T12:27:44.959Z,100756.03
2019-05-07T12:30:47.139Z,100760.31
2019-05-07T12:33:39.883Z,100764.09
2019-05-07T12:36:26.920Z,100763.38
2019-05-07T12:39:13.785Z,100764.64
2019-05-07T12:42:00.921Z,100760.82
2019-05-07T12:44:47.588Z,100763.13
2019-05-07T12:47:34.364Z,100759.94
2019-05-07T12:50:24.647Z,100757.11
2019-05-07T12:53:12.325Z,100755.93
2019-05-07T12:55:58.888Z,100757.28
2019-05-07T12:58:45.959Z,100757.92
2019-05-07T13:01:32.916Z,100749.49
2019-05-07T13:04:19.608Z,100754.09
2019-05-07T13:07:09.269Z,100751.27
2019-05-07T13:09:56.573Z,100751.78
2019-05-07T13:12:44.033Z,100755.17
2019-05-07T13:15:32.661Z,100748.91
2019-05-07T13:21:24.672Z,100751.79
2019-05-07T13:24:14.766Z,100750.83
2019-05-07T13:26:59.197Z,100743.80
2019-05-07T13:29:46.051Z,100743.13
2019-05-07T13:32:33.279Z,100742.52
2019-05-07T13:35:20.801Z,100746.77
2019-05-07T13:38:08.046Z,100745.02
2019-05-07T13:41:02.180Z,100741.80
2019-05-07T13:44:05.897Z,100745.37
2019-05-07T13:46:53.136Z,100733.02
2019-05-07T13:49:39.919Z,100729.46
2019-05-07T13:52:26.931Z,100728.31
2019-05-07T13:55:13.601Z,100723.34
2019-05-07T13:58:00.716Z,100713.75
2019-05-07T14:01:04.891Z,100709.52
2019-05-07T14:03:49.132Z,100707.16
2019-05-07T14:06:39.103Z,100706.30
2019-05-07T14:09:26.296Z,100702.48
2019-05-07T14:12:13.591Z,100708.83
2019-05-07T14:15:02.192Z,100699.70
2019-05-07T14:17:48.058Z,100702.81
2019-05-07T14:20:35.477Z,100701.02
2019-05-07T14:23:22.743Z,100691.47
2019-05-07T14:26:09.832Z,100693.45
2019-05-07T14:28:56.497Z,100693.09
2019-05-07T14:31:43.561Z,100691.09
2019-05-07T14:37:42.547Z,100693.00
2019-05-07T14:40:32.480Z,100685.95
2019-05-07T14:43:18.928Z,100683.89
2019-05-07T14:46:05.821Z,100682.87
2019-05-07T14:48:52.853Z,100676.73
2019-05-07T14:51:39.692Z,100676.06
2019-05-07T14:54:27.185Z,100680.67
2019-05-07T14:57:14.881Z,100676.70
2019-05-07T15:00:03.291Z,100678.70
2019-05-07T15:02:49.109Z,100678.06
2019-05-07T15:05:36.678Z,100673.91
2019-05-07T15:08:23.812Z,100675.14
2019-05-07T15:11:11.016Z,100676.25
2019-05-07T15:13:57.807Z,100677.23
2019-05-07T15:16:44.951Z,100679.28
2019-05-07T15:19:32.186Z,100677.55
2019-05-07T15:25:42.882Z,100671.05
2019-05-07T15:28:32.174Z,100671.66
2019-05-07T15:31:16.878Z,100673.53
2019-05-07T15:37:11.900Z,100665.91
2019-05-07T15:39:56.714Z,100673.70
2019-05-07T15:42:43.642Z,100672.24
2019-05-07T15:45:30.467Z,100670.45
2019-05-07T15:48:17.590Z,100671.59
2019-05-07T15:51:04.552Z,100673.00
2019-05-07T15:53:52.175Z,100664.34
2019-05-07T15:56:38.269Z,100662.47
2019-05-07T15:59:25.509Z,100661.83
2019-05-07T16:02:19.461Z,100662.33
2019-05-07T16:05:06.476Z,100656.68
2019-05-07T16:07:53.715Z,100661.55
2019-05-07T16:10:42.654Z,100659.40
2019-05-07T16:13:27.598Z,100661.17
2019-05-07T16:16:14.405Z,100660.28
2019-05-07T16:19:01.985Z,100656.42
2019-05-07T16:21:51.325Z,100658.20
2019-05-07T16:24:38.979Z,100655.91
2019-05-07T16:27:33.282Z,100651.59
2019-05-07T16:33:26.289Z,100650.07
2019-05-07T16:36:12.891Z,100646.33
2019-05-07T16:38:59.880Z,100647.73
2019-05-07T16:44:52.677Z,100646.70
2019-05-07T16:47:39.396Z,100644.18
2019-05-07T16:50:27.403Z,100642.66
2019-05-07T16:59:27.432Z,100641.03
2019-05-07T17:02:19.500Z,100635.42
2019-05-07T17:08:12.532Z,100644.91
2019-05-07T17:10:59.546Z,100636.19
2019-05-07T17:13:47.772Z,100635.77
2019-05-07T17:16:34.495Z,100634.30
2019-05-07T17:19:22.634Z,100642.47
2019-05-07T17:22:09.650Z,100638.63
2019-05-07T17:28:02.950Z,100641.44
2019-05-07T17:30:52.301Z,100644.61
2019-05-07T17:33:36.751Z,100639.23
2019-05-07T17:36:23.889Z,100642.30
2019-05-07T17:39:12.212Z,100640.59
2019-05-07T17:41:58.664Z,100636.81
2019-05-07T17:44:45.856Z,100637.96
2019-05-07T17:50:51.371Z,100631.73
2019-05-07T17:53:38.443Z,100634.91
2019-05-07T17:56:26.043Z,100636.30
2019-05-07T17:59:12.748Z,100635.09
2019-05-07T18:02:14.859Z,100630.92
2019-05-07T18:05:02.850Z,100624.69
2019-05-07T18:07:52.755Z,100631.73
2019-05-07T18:10:42.284Z,100631.52
2019-05-07T18:13:27.339Z,100629.08
2019-05-07T18:16:23.687Z,100631.66
2019-05-07T18:19:12.624Z,100630.13
2019-05-07T18:21:58.416Z,100631.62
2019-05-07T18:24:45.138Z,100623.25
2019-05-07T18:27:32.954Z,100637.45
2019-05-07T18:30:22.154Z,100635.23
2019-05-07T18:33:12.054Z,100624.22
2019-05-07T18:35:59.532Z,100629.06
2019-05-07T18:38:46.616Z,100628.02
2019-05-07T18:41:34.058Z,100626.19
2019-05-07T18:44:22.390Z,100625.18
2019-05-07T18:47:08.222Z,100627.33
2019-05-07T18:49:55.315Z,100631.12
2019-05-07T18:52:42.527Z,100630.73
2019-05-07T18:55:29.746Z,100623.06
2019-05-07T18:58:17.117Z,100633.27
2019-05-07T19:04:16.171Z,100632.44
2019-05-07T19:07:04.086Z,100639.09
2019-05-07T19:09:51.667Z,100636.09
2019-05-07T19:12:38.079Z,100649.80
2019-05-07T19:15:26.020Z,100642.22
2019-05-07T19:18:12.756Z,100631.63
2019-05-07T19:21:00.706Z,100635.52
2019-05-07T19:23:47.528Z,100637.58
2019-05-07T19:26:35.947Z,100640.52
2019-05-07T19:29:23.486Z,100636.63
2019-05-07T19:32:12.120Z,100632.50
2019-05-07T19:34:59.152Z,100628.46
2019-05-07T19:37:46.375Z,100636.63
2019-05-07T19:40:33.585Z,100632.91
2019-05-07T19:43:21.815Z,100634.87
2019-05-07T19:46:08.395Z,100630.63
2019-05-07T19:48:57.356Z,100634.69
2019-05-07T19:51:43.574Z,100626.47
2019-05-07T19:54:32.355Z,100629.64
2019-05-07T19:57:20.422Z,100628.38
2019-05-07T20:00:07.355Z,100621.83
2019-05-07T20:02:56.105Z,100615.16
2019-05-07T20:08:49.746Z,100613.11
2019-05-07T20:11:49.504Z,100605.81
2019-05-07T20:14:36.253Z,100607.91
2019-05-07T20:17:23.055Z,100609.66
2019-05-07T20:20:12.384Z,100608.20
2019-05-07T20:22:57.638Z,100605.27
2019-05-07T20:25:45.493Z,100605.72
2019-05-07T20:28:32.879Z,100608.45
2019-05-07T20:31:22.694Z,100604.67
2019-05-07T20:34:09.503Z,100601.22
2019-05-07T20:36:56.799Z,100600.42
2019-05-07T20:39:43.736Z,100599.17
2019-05-07T20:42:32.395Z,100600.39
2019-05-07T20:45:17.887Z,100594.62
2019-05-07T20:48:05.227Z,100600.63
2019-05-07T20:50:54.289Z,100594.19
2019-05-07T20:57:08.616Z,100592.00
2019-05-07T20:59:55.512Z,100590.02
2019-05-07T21:02:47.925Z,100584.53
2019-05-07T21:08:36.131Z,100587.48
2019-05-07T21:11:23.348Z,100582.35
2019-05-07T21:14:12.109Z,100575.11
2019-05-07T21:16:57.467Z,100579.67
2019-05-07T21:19:44.168Z,100576.61
2019-05-07T21:22:32.076Z,100581.72
2019-05-07T21:25:20.017Z,100576.01
2019-05-07T21:28:07.036Z,100579.81
2019-05-07T21:30:54.980Z,100582.68
2019-05-07T21:33:42.919Z,100576.77
2019-05-07T21:36:28.911Z,100576.14
2019-05-07T21:42:22.869Z,100574.73
2019-05-07T21:45:08.805Z,100579.00
2019-05-07T21:47:56.087Z,100573.78
2019-05-07T21:50:43.899Z,100569.27
2019-05-07T21:53:43.057Z,100564.73
2019-05-07T21:56:32.491Z,100571.62
2019-05-07T21:59:21.888Z,100564.88
2019-05-07T22:02:14.798Z,100558.52
2019-05-07T22:05:02.589Z,100558.72
2019-05-07T22:07:48.572Z,100555.30
2019-05-07T22:10:35.845Z,100556.97
2019-05-07T22:13:23.005Z,100548.94
2019-05-07T22:16:09.790Z,100549.56
2019-05-07T22:18:58.335Z,100544.12
2019-05-07T22:21:46.147Z,100544.31
2019-05-07T22:24:33.092Z,100541.91
2019-05-07T22:27:22.063Z,100541.22
2019-05-07T22:30:07.093Z,100535.69
2019-05-07T22:33:02.452Z,100534.06
2019-05-07T22:35:48.199Z,100524.32
2019-05-07T22:38:36.393Z,100521.51
2019-05-07T22:41:23.302Z,100517.49
2019-05-07T22:44:12.038Z,100520.22
2019-05-07T22:46:57.657Z,100511.91
2019-05-07T22:52:52.487Z,100503.25
2019-05-07T22:55:45.198Z,100495.78
2019-05-07T22:58:32.636Z,100490.16
2019-05-07T23:01:19.776Z,100485.36
2019-05-07T23:04:08.066Z,100492.03
2019-05-07T23:06:56.007Z,100484.73
2019-05-07T23:09:52.215Z,100481.80
2019-05-07T23:12:38.264Z,100484.53
2019-05-07T23:15:26.714Z,100471.48
2019-05-07T23:18:14.497Z,100476.44
2019-05-07T23:21:01.385Z,100473.45
2019-05-07T23:23:48.841Z,100476.60
2019-05-07T23:26:47.394Z,100471.02
2019-05-07T23:29:37.950Z,100469.73
2019-05-07T23:32:26.379Z,100470.13
2019-05-07T23:35:13.774Z,100462.47
2019-05-07T23:38:02.497Z,100471.37
2019-05-07T23:41:06.374Z,100473.12
2019-05-07T23:44:12.777Z,100473.09
2019-05-07T23:47:02.730Z,100465.16
2019-05-07T23:49:47.844Z,100456.22
2019-05-07T23:52:49.703Z,100453.42
2019-05-07T23:55:36.801Z,100449.54
2019-05-07T23:58:24.059Z,100443.53
